• Join FlightAware (Why Join?)
  • Login
  • US Flag 
06:03PM EST


 

Airport Tracker/Info


-or-


 

Live Flight TrackerFlight Track Log ✈ TAM3609 ✈ 01-May-2013 ✈ SBEG / MAO - SBBR / BSB

Flight Track Log - Related Links

Times and Time Zones

All times are in EDT time to prevent confusion due to time zone crossing. See the TAM3609 flight status page for this flight to view local times or setup timezone preferences in your user account.

Time Position Orientation Groundspeed Altitude Reporting Facility
EDT Latitude Longitude Course Direction KTS MPH feet Rate Location/Type
04:31PM -8.6821 -54.8645 138° Southeast  Level Estimated
04:32PM -8.7684 -54.7837 137° Southeast  Level Estimated
04:33PM -8.8548 -54.7030 137° Southeast  Level Estimated
04:34PM -8.9412 -54.6222 137° Southeast  Level Estimated
04:35PM -9.0275 -54.5413 137° Southeast  Level Estimated
04:36PM -9.1138 -54.4604 137° Southeast  Level Estimated
04:37PM -9.2001 -54.3795 137° Southeast  Level Estimated
04:38PM -9.2864 -54.2985 137° Southeast  Level Estimated
04:39PM -9.3727 -54.2175 137° Southeast  Level Estimated
04:40PM -9.4589 -54.1365 137° Southeast  Level Estimated
04:41PM -9.5451 -54.0554 137° Southeast  Level Estimated
04:42PM -9.6313 -53.9743 137° Southeast  Level Estimated
04:43PM -9.7175 -53.8931 137° Southeast  Level Estimated
04:44PM -9.8037 -53.8119 137° Southeast  Level Estimated
04:45PM -9.8898 -53.7307 137° Southeast  Level Estimated
04:46PM -9.9760 -53.6494 137° Southeast  Level Estimated
04:47PM -10.0621 -53.5680 137° Southeast  Level Estimated
04:48PM -10.1482 -53.4866 137° Southeast  Level Estimated
04:49PM -10.2342 -53.4052 137° Southeast  Level Estimated
04:50PM -10.3203 -53.3237 137° Southeast  Level Estimated
04:51PM -10.4063 -53.2422 137° Southeast  Level Estimated
04:52PM -10.4923 -53.1607 137° Southeast  Level Estimated
04:53PM -10.5783 -53.0791 137° Southeast  Level Estimated
04:54PM -10.6643 -52.9974 137° Southeast  Level Estimated
04:55PM -10.7502 -52.9157 137° Southeast  Level Estimated
04:56PM -10.8362 -52.8340 137° Southeast  Level Estimated
04:57PM -10.9221 -52.7522 137° Southeast  Level Estimated
04:58PM -11.0079 -52.6704 137° Southeast  Level Estimated
04:59PM -11.0938 -52.5885 137° Southeast  Level Estimated
05:00PM -11.1796 -52.5066 137° Southeast  Level Estimated
05:01PM -11.2654 -52.4246 137° Southeast  Level Estimated
05:02PM -11.3512 -52.3425 137° Southeast  Level Estimated
05:03PM -11.4370 -52.2605 137° Southeast  Level Estimated
05:04PM -11.5228 -52.1783 137° Southeast  Level Estimated
05:05PM -11.6085 -52.0962 137° Southeast  Level Estimated
05:06PM -11.6942 -52.0139 137° Southeast  Level Estimated
05:07PM -11.7799 -51.9316 137° Southeast  Level Estimated
05:08PM -11.8655 -51.8493 137° Southeast  Level Estimated
05:09PM -11.9511 -51.7669 137° Southeast  Level Estimated
05:10PM -12.0367 -51.6845 137° Southeast  Level Estimated
05:11PM -12.1223 -51.6020 137° Southeast  Level Estimated
05:12PM -12.2079 -51.5195 137° Southeast  Level Estimated
05:13PM -12.2934 -51.4369 137° Southeast  Level Estimated
05:14PM -12.3789 -51.3542 137° Southeast  Level Estimated
05:15PM -12.4644 -51.2715 137° Southeast  Level Estimated
05:16PM -12.5499 -51.1888 137° Southeast  Level Estimated
05:17PM -12.6353 -51.1060 137° Southeast  Level Estimated
05:18PM -12.7207 -51.0231 137° Southeast  Level Estimated
05:19PM -12.8061 -50.9402 137° Southeast  Level Estimated
05:20PM -12.8914 -50.8572 137° Southeast  Level Estimated
05:21PM -12.9768 -50.7742 137° Southeast  Level Estimated
05:22PM -13.0621 -50.6911 137° Southeast  Level Estimated
05:23PM -13.1473 -50.6079 136° Southeast  Level Estimated
05:24PM -13.2326 -50.5247 136° Southeast  Level Estimated
05:25PM -13.3178 -50.4414 136° Southeast  Level Estimated
05:26PM -13.4030 -50.3581 136° Southeast  Level Estimated
05:27PM -13.4882 -50.2747 136° Southeast  Level Estimated
05:28PM -13.5733 -50.1913 136° Southeast  Level Estimated
05:29PM -13.6584 -50.1078 136° Southeast  Level Estimated
05:30PM -13.7435 -50.0243 136° Southeast  Level Estimated
05:31PM -13.8286 -49.9406 136° Southeast  Level Estimated
05:32PM -13.9136 -49.8569 136° Southeast  Level Estimated
05:33PM -13.9986 -49.7732 136° Southeast  Level Estimated
05:34PM -14.0836 -49.6894 136° Southeast  Level Estimated
05:35PM -14.1685 -49.6055 136° Southeast  Level Estimated
05:36PM -14.2534 -49.5216 136° Southeast  Level Estimated
05:37PM -14.3383 -49.4376 136° Southeast  Level Estimated
05:38PM -14.4231 -49.3535 136° Southeast  Level Estimated
05:39PM -14.5080 -49.2694 136° Southeast  Level Estimated
05:40PM -14.5927 -49.1852 136° Southeast  Level Estimated
05:41PM -14.6775 -49.1010 136° Southeast  Level Estimated
05:42PM -14.7622 -49.0167 136° Southeast  Level Estimated
05:43PM -14.8469 -48.9323 136° Southeast  Level Estimated
05:44PM -14.9316 -48.8478 136° Southeast  Level Estimated
05:45PM -15.0162 -48.7633 136° Southeast  Level Estimated
05:46PM -15.1009 -48.6787 136° Southeast  Level Estimated
05:47PM -15.1854 -48.5941 136° Southeast  Level Estimated
05:48PM -15.2700 -48.5093 136° Southeast  Level Estimated
05:49PM -15.3545 -48.4246 136° Southeast  Level Estimated
05:50PM -15.4390 -48.3397 136° Southeast  Level Estimated
05:51PM -15.5234 -48.2548 136° Southeast  Level Estimated
05:52PM -15.6079 -48.1698 136° Southeast  Level Estimated
05:53PM -15.6922 -48.0847 136° Southeast  Level Estimated
05:54PM -15.7766 -47.9996 136° Southeast  Level Estimated
05:55PM -15.8609 -47.9144 136° Southeast  Level Estimated
05:56PM -15.8626 -47.9127 136° Southeast  Level Estimated
05:57PM -15.8626 -47.9127 128° Southeast  Level Estimated
05:58PM -15.8626 -47.9127 128° Southeast  Level Estimated
05:59PM -15.8626 -47.9127 128° Southeast  Level Estimated
06:00PM -15.8626 -47.9127 128° Southeast  Level Estimated
06:01PM -15.8626 -47.9127 128° Southeast  Level Estimated
06:02PM -15.8626 -47.9127 128° Southeast  Level Estimated
06:03PM -15.8626 -47.9127 128° Southeast  Level Estimated
06:04PM -15.8626 -47.9127 128° Southeast  Level Estimated
06:05PM -15.8626 -47.9127 128° Southeast  Level Estimated
06:06PM -15.8626 -47.9127 128° Southeast  Level Estimated
06:07PM -15.8626 -47.9127 128° Southeast  Level Estimated